Погода Курдымовона 2 недели

Смоленская область, Россия

23 июля-05 августа
  • 23июля
    Сегодня
    +12°
    +24°
    Ясно и безоблачно
    ВремяПогодаТемператураВлажностьДавлениеВетер, м/сВероятность осадков
    00:00Ясно и безоблачно+15°C94 %744 мм3.0 м/с3 %
    03:00Ясно и безоблачно+15°C96 %744 мм2.6 м/с2 %
    06:00Ясно и безоблачно+15°C91 %745 мм3.3 м/с2 %
    09:00Ясно и безоблачно+20°C69 %745 мм3.4 м/с2 %
    12:00Ясно и безоблачно+22°C41 %745 мм3.8 м/с8 %
    15:00Ясно и безоблачно+23°C39 %745 мм3.3 м/с9 %
    18:00Практически безоблачно+23°C43 %745 мм3.3 м/с4 %
    21:00Ясно и безоблачно+18°C58 %745 мм2.3 м/с2 %
  • 24июля
    Среда
    +12°
    +25°
    Небольшая облачность
    ВремяПогодаТемператураВлажностьДавлениеВетер, м/сВероятность осадков
    00:00Ясно и безоблачно+15°C70 %745 мм2.7 м/с2 %
    03:00Ясно и безоблачно+13°C76 %745 мм2.1 м/с2 %
    06:00Ясно и безоблачно+14°C80 %745 мм2.0 м/с2 %
    09:00Ясно и безоблачно+20°C58 %745 мм2.1 м/с2 %
    12:00Небольшая облачность+23°C39 %745 мм3.1 м/с2 %
    15:00Небольшая облачность+24°C36 %744 мм2.8 м/с2 %
    18:00Небольшая облачность+24°C35 %744 мм1.7 м/с2 %
    21:00Небольшая облачность+18°C59 %744 мм1.9 м/с2 %
  • 25июля
    Четверг
    +14°
    +26°
    Облачно с прояснениями
    ВремяПогодаТемператураВлажностьДавлениеВетер, м/сВероятность осадков
    00:00Ясно и безоблачно+16°C59 %744 мм0.5 м/с2 %
    03:00Ясно и безоблачно+13°C79 %743 мм1.9 м/с2 %
    06:00Ясно и безоблачно+14°C81 %743 мм0.5 м/с2 %
    09:00Ясно и безоблачно+21°C52 %744 мм1.1 м/с2 %
    12:00Небольшая облачность+25°C38 %743 мм1.0 м/с6 %
    15:00Облачно с прояснениями+25°C36 %743 мм0.8 м/с16 %
    18:00Практически безоблачно+25°C41 %742 мм2.2 м/с26 %
    21:00Практически безоблачно+20°C57 %743 мм2.3 м/с13 %
  • 26июля
    Пятница
    +11°
    +24°
    Пасмурно, сплошная облачность
    ВремяПогодаТемператураВлажностьДавлениеВетер, м/сВероятность осадков
    00:00Практически безоблачно+16°C80 %743 мм1.5 м/с2 %
    03:00Ясно и безоблачно+15°C90 %743 мм1.5 м/с2 %
    06:00Ясно и безоблачно+15°C89 %744 мм1.8 м/с2 %
    09:00Ясно и безоблачно+21°C68 %745 мм1.6 м/с2 %
    12:00Практически безоблачно+24°C53 %745 мм2.3 м/с21 %
    15:00Пасмурно, сплошная облачность+24°C47 %745 мм2.5 м/с27 %
    18:00Небольшая облачность, ливень+24°C51 %746 мм1.9 м/с37 %
    21:00Практически безоблачно+19°C71 %746 мм1.9 м/с15 %
  • 27июля
    Суббота
    +14°
    +26°
    Небольшая облачность
    ВремяПогодаТемператураВлажностьДавлениеВетер, м/сВероятность осадков
    00:00Ясно и безоблачно+16°C79 %747 мм2.0 м/с3 %
    03:00Ясно и безоблачно+13°C91 %748 мм1.5 м/с5 %
    06:00Ясно и безоблачно+13°C92 %748 мм1.2 м/с4 %
    09:00Ясно и безоблачно+22°C59 %749 мм0.3 м/с8 %
    12:00Практически безоблачно+24°C49 %750 мм1.0 м/с19 %
    15:00Небольшая облачность+25°C47 %749 мм1.5 м/с27 %
    18:00Небольшая облачность+24°C52 %749 мм2.2 м/с36 %
    21:00Ясно и безоблачно+20°C70 %750 мм1.1 м/с20 %
Мы используем cookies
Соглашаюсь